El Poble-sec, Spain

10:47 AM CEST on October 15, 2018 (GMT +0200)
El Prat | | Change Station

Elev 20 ft 41.28 °N, 2.07 °E | Updated 47 minutes ago

Partly Cloudy
Partly Cloudy
64 °F
Feels Like 64 °F
N
14
Wind Variable Wind from NW
Gusts 30 mph

Today
High -- | Low -- °F
--% Chance of Precip.
Yesterday
High -- | Low -- °F
Precip. -- in
Pressure 29.65 in
Visibility 6.2 miles
Clouds Few 1800 ft
Scattered Clouds 3000 ft
Dew Point 55 °F
Humidity 73%
Rainfall 0.00 in
Snow Depth Not available.
8:02 AM 7:10 PM
Waxing Crescent, 37% visible
METAR LEBL 150800Z 32012G26KT 9999 FEW018 SCT030 18/13 Q1004 NOSIG
Pressure 29.65 in
Visibility 6.2 miles
Clouds Few 1800 ft
Scattered Clouds 3000 ft
Dew Point 55 °F
Humidity 73%
Rainfall 0.00 in
Snow Depth Not available.
8:02 AM 7:10 PM
Waxing Crescent, 37% visible
METAR LEBL 150800Z 32012G26KT 9999 FEW018 SCT030 18/13 Q1004 NOSIG

Get Severe Weather Alerts

Thanks for signing up!

Be on the lookout for a verification email in your inbox.

You'll start receiving the daily forecast at 6 AM.

×

10-Day Weather Forecast

×

Almanac

Astronomy

Oct. 15, 2018 Rise Set
Actual Time
Civil Twilight
Nautical Twilight
Astronomical Twilight
Moon
Length of Visible Light
Length of Day
Tomorrow will be .
, % of the Moon is Illuminated

Today's Extremes

Country Highs Country Lows

Community

WunderPhotos

Category 6

Welcome to Category 6. This is the collective home for Weather Underground's featured writeups by Dr. Jeff Masters (right), Bob Henson (left), Chris Burt, and other regular contributors.

Nearby

Air Quality

  Air Quality AQ Index Pollutant
Not available.

Snow Depth

Station Depth Elevation

Earthquake Activity

City Distance Mag. Time & Date
Minimum magnitude displayed is 2.5.

Coastal Water Temperatures

Place Temperature

Stations

Nearby Weather Stations

Station Location Temp. Windchill Dew Point Humidity Wind Precip. Elev Updated Type